Time;durP1;ratioP1;P1;durP2;ratioP2;P2;SDS_P1;SDS_P2;PMS_P1;PMS_P2;Temp;Humidity;BMP_temperature;BMP_pressure;BME280_temperature;BME280_humidity;BME280_pressure;Samples;Min_cycle;Max_cycle;Signal;HPM_P1;HPM_P2
2023/02/06 00:00:22;;;;;;;27.80;13.50;;;;;;;;;;5013926;28;20033;-73
2023/02/06 00:02:48;;;;;;;30.52;16.65;;;;;;;;;;5008982;28;20698;-73
2023/02/06 00:05:14;;;;;;;29.42;16.70;;;;;;;;;;5012783;28;20033;-73
2023/02/06 00:07:40;;;;;;;29.55;14.45;;;;;;;;;;5010842;28;20045;-73
2023/02/06 00:10:07;;;;;;;29.80;14.75;;;;;;;;;;5012472;28;20025;-73
2023/02/06 00:12:33;;;;;;;34.40;18.05;;;;;;;;;;5012813;28;20053;-73
2023/02/06 00:14:59;;;;;;;43.13;24.08;;;;;;;;;;5015759;28;20030;-73
2023/02/06 00:17:25;;;;;;;72.82;34.42;;;;;;;;;;5012920;28;20134;-73
2023/02/06 00:19:51;;;;;;;110.78;57.00;;;;;;;;;;5011618;28;20026;-73
2023/02/06 00:22:17;;;;;;;76.18;38.55;;;;;;;;;;5014124;28;20064;-73
2023/02/06 00:24:43;;;;;;;38.13;19.88;;;;;;;;;;5009401;28;20451;-73
2023/02/06 00:27:09;;;;;;;52.15;27.48;;;;;;;;;;5019324;28;20073;-74
2023/02/06 00:29:35;;;;;;;55.58;29.33;;;;;;;;;;5011646;28;20414;-73
2023/02/06 00:32:01;;;;;;;48.85;26.92;;;;;;;;;;5008718;28;20041;-73
2023/02/06 00:34:27;;;;;;;36.55;20.83;;;;;;;;;;4995525;28;20036;-73
2023/02/06 00:36:53;;;;;;;29.35;17.63;;;;;;;;;;5010552;28;20042;-73
2023/02/06 00:39:19;;;;;;;30.67;16.30;;;;;;;;;;5010437;28;20030;-73
2023/02/06 00:41:45;;;;;;;26.70;14.13;;;;;;;;;;5011080;28;20061;-73
2023/02/06 00:44:11;;;;;;;22.55;14.18;;;;;;;;;;5015484;28;20092;-73
2023/02/06 00:46:37;;;;;;;23.85;13.35;;;;;;;;;;5011681;28;20080;-73
2023/02/06 00:49:03;;;;;;;22.70;10.98;;;;;;;;;;5013260;28;20030;-73
2023/02/06 00:51:29;;;;;;;16.10;9.73;;;;;;;;;;5012795;28;20480;-73
2023/02/06 00:53:55;;;;;;;16.27;9.13;;;;;;;;;;5008058;28;20359;-73
2023/02/06 00:56:21;;;;;;;16.40;9.18;;;;;;;;;;5011062;28;20034;-73
2023/02/06 00:58:47;;;;;;;13.88;7.03;;;;;;;;;;5011934;28;20030;-73
2023/02/06 01:01:13;;;;;;;17.27;7.75;;;;;;;;;;5011341;28;20054;-73
2023/02/06 01:03:39;;;;;;;15.23;7.80;;;;;;;;;;5006842;28;20168;-73
2023/02/06 01:06:05;;;;;;;17.27;10.75;;;;;;;;;;5008553;28;20592;-72
2023/02/06 01:08:31;;;;;;;18.27;9.82;;;;;;;;;;5017604;28;20033;-72
2023/02/06 01:10:57;;;;;;;17.77;9.90;;;;;;;;;;5013367;28;20038;-73
2023/02/06 01:13:23;;;;;;;15.00;8.82;;;;;;;;;;5019513;28;20044;-73
2023/02/06 01:15:49;;;;;;;16.33;9.05;;;;;;;;;;5018415;28;20038;-73
2023/02/06 01:18:15;;;;;;;15.25;7.65;;;;;;;;;;5014738;28;20170;-73
2023/02/06 01:20:41;;;;;;;13.88;7.85;;;;;;;;;;5014027;28;20065;-73
2023/02/06 01:23:07;;;;;;;12.98;7.88;;;;;;;;;;5016581;28;20093;-73
2023/02/06 01:25:33;;;;;;;14.45;8.32;;;;;;;;;;5020624;28;20040;-73
2023/02/06 01:27:59;;;;;;;11.75;6.72;;;;;;;;;;5012170;28;20415;-73
2023/02/06 01:30:25;;;;;;;12.85;8.07;;;;;;;;;;5010832;28;20033;-73
2023/02/06 01:32:51;;;;;;;12.00;6.65;;;;;;;;;;5013404;28;20037;-73
2023/02/06 01:35:17;;;;;;;14.57;7.75;;;;;;;;;;5014993;28;20034;-73
2023/02/06 01:37:43;;;;;;;16.30;8.63;;;;;;;;;;5015563;28;20154;-73
2023/02/06 01:40:12;;;;;;;15.82;7.93;;;;;;;;;;5017696;28;20360;-73
2023/02/06 01:42:38;;;;;;;15.60;7.20;;;;;;;;;;5013191;28;20029;-73
2023/02/06 01:45:16;;;;;;;15.98;6.60;;;;;;;;;;5013697;28;20057;-73
2023/02/06 01:47:42;;;;;;;15.45;7.05;;;;;;;;;;5018988;28;20056;-73
2023/02/06 01:50:09;;;;;;;22.33;11.57;;;;;;;;;;5016047;28;20789;-73
2023/02/06 01:52:35;;;;;;;18.13;9.48;;;;;;;;;;5016008;28;20069;-73
2023/02/06 01:55:01;;;;;;;19.10;10.23;;;;;;;;;;5013717;28;20116;-73
2023/02/06 01:57:28;;;;;;;16.13;9.27;;;;;;;;;;5019685;28;20782;-73
2023/02/06 01:59:58;;;;;;;15.00;7.38;;;;;;;;;;5018400;28;20029;-72
2023/02/06 02:02:26;;;;;;;13.75;7.20;;;;;;;;;;5012880;28;20049;-73
2023/02/06 02:04:52;;;;;;;16.67;8.85;;;;;;;;;;5011854;28;20041;-73
2023/02/06 02:07:24;;;;;;;15.02;8.80;;;;;;;;;;5013820;28;20072;-73
2023/02/06 02:09:51;;;;;;;15.40;8.65;;;;;;;;;;5017037;28;20427;-73
2023/02/06 02:12:18;;;;;;;16.98;9.10;;;;;;;;;;5015059;28;20042;-73
2023/02/06 02:14:45;;;;;;;12.65;7.60;;;;;;;;;;5014075;28;20052;-73
2023/02/06 02:17:17;;;;;;;15.18;8.60;;;;;;;;;;5017503;28;20434;-73
2023/02/06 02:20:01;;;;;;;32.65;14.10;;;;;;;;;;5016494;28;20026;-73
2023/02/06 02:22:45;;;;;;;22.05;10.82;;;;;;;;;;5012062;28;20084;-73
2023/02/06 02:25:11;;;;;;;21.90;10.30;;;;;;;;;;5016533;28;20025;-73
2023/02/06 02:27:46;;;;;;;23.20;10.32;;;;;;;;;;5001426;28;20045;-73
2023/02/06 02:30:31;;;;;;;14.85;8.23;;;;;;;;;;5012895;28;20037;-73
2023/02/06 02:32:57;;;;;;;13.57;7.15;;;;;;;;;;5010008;28;20045;-73
2023/02/06 02:35:27;;;;;;;17.20;8.73;;;;;;;;;;5014396;28;20041;-73
2023/02/06 02:37:59;;;;;;;19.02;8.70;;;;;;;;;;5017582;28;20045;-74
2023/02/06 02:40:44;;;;;;;16.45;8.48;;;;;;;;;;5014617;28;20113;-73
2023/02/06 02:43:28;;;;;;;19.05;10.65;;;;;;;;;;5012063;28;20396;-73
2023/02/06 02:46:02;;;;;;;17.63;10.13;;;;;;;;;;5011544;28;20871;-73
2023/02/06 02:48:30;;;;;;;16.20;9.23;;;;;;;;;;5015331;28;20044;-73
2023/02/06 02:50:56;;;;;;;23.92;11.77;;;;;;;;;;5014101;28;20042;-73
2023/02/06 02:53:23;;;;;;;18.55;10.57;;;;;;;;;;5015430;28;20053;-73
2023/02/06 02:55:49;;;;;;;18.98;9.70;;;;;;;;;;5018603;28;20100;-73
2023/02/06 02:58:17;;;;;;;17.98;9.32;;;;;;;;;;5007978;28;20052;-73
2023/02/06 03:00:48;;;;;;;17.40;9.82;;;;;;;;;;5011858;28;20042;-73
2023/02/06 03:03:17;;;;;;;17.65;9.50;;;;;;;;;;5013788;28;20049;-74
2023/02/06 03:06:15;;;;;;;14.85;9.52;;;;;;;;;;5012353;28;20061;-73
2023/02/06 03:08:44;;;;;;;18.95;9.27;;;;;;;;;;4954525;28;20042;-73
2023/02/06 03:11:18;;;;;;;19.00;9.35;;;;;;;;;;5013652;28;20064;-73
2023/02/06 03:14:14;;;;;;;18.10;10.30;;;;;;;;;;5014912;28;20091;-73
2023/02/06 03:16:43;;;;;;;17.63;10.63;;;;;;;;;;5010206;28;20050;-73
2023/02/06 03:19:17;;;;;;;17.50;9.50;;;;;;;;;;5014226;28;20036;-73
2023/02/06 03:21:44;;;;;;;15.18;9.50;;;;;;;;;;5013860;28;20846;-73
2023/02/06 03:24:13;;;;;;;19.77;9.48;;;;;;;;;;5012793;28;20400;-73
2023/02/06 03:26:40;;;;;;;14.80;9.80;;;;;;;;;;5013852;28;20045;-73
2023/02/06 03:29:10;;;;;;;17.70;8.50;;;;;;;;;;5013151;28;20025;-73
2023/02/06 03:31:39;;;;;;;16.42;9.30;;;;;;;;;;5017294;28;20041;-73
2023/02/06 03:34:09;;;;;;;15.55;8.02;;;;;;;;;;5016110;28;20047;-73
2023/02/06 03:36:35;;;;;;;14.30;8.07;;;;;;;;;;5013469;28;20037;-73
2023/02/06 03:39:01;;;;;;;12.70;6.53;;;;;;;;;;5013834;28;20071;-74
2023/02/06 03:41:29;;;;;;;11.43;6.45;;;;;;;;;;5012988;28;20721;-73
2023/02/06 03:43:56;;;;;;;12.05;6.88;;;;;;;;;;5011555;28;20443;-73
2023/02/06 03:46:23;;;;;;;13.55;6.97;;;;;;;;;;5010056;28;20060;-74
2023/02/06 03:48:51;;;;;;;14.15;8.00;;;;;;;;;;5012896;28;20034;-73
2023/02/06 03:51:19;;;;;;;15.93;9.23;;;;;;;;;;5013129;28;20043;-73
2023/02/06 03:53:47;;;;;;;12.65;6.68;;;;;;;;;;5014004;28;20033;-73
2023/02/06 03:56:18;;;;;;;13.30;7.95;;;;;;;;;;5010776;28;20183;-73
2023/02/06 03:58:44;;;;;;;11.82;6.43;;;;;;;;;;5010355;28;20456;-74
2023/02/06 04:01:11;;;;;;;13.98;7.07;;;;;;;;;;5011257;28;20463;-73
2023/02/06 04:03:37;;;;;;;12.85;7.25;;;;;;;;;;5012495;28;20046;-73
2023/02/06 04:06:03;;;;;;;9.82;6.38;;;;;;;;;;5016745;28;20034;-73
2023/02/06 04:08:29;;;;;;;12.63;6.85;;;;;;;;;;5013971;28;20391;-73
2023/02/06 04:10:55;;;;;;;13.65;7.63;;;;;;;;;;5013193;28;20549;-73
2023/02/06 04:13:21;;;;;;;16.23;8.50;;;;;;;;;;5008638;28;20034;-73
2023/02/06 04:15:47;;;;;;;13.43;7.82;;;;;;;;;;5011021;28;20116;-73
2023/02/06 04:18:13;;;;;;;11.75;6.78;;;;;;;;;;5014940;28;20030;-73
2023/02/06 04:20:39;;;;;;;11.68;6.95;;;;;;;;;;5009808;28;20734;-74
2023/02/06 04:23:06;;;;;;;14.13;6.72;;;;;;;;;;5012556;28;20499;-73
2023/02/06 04:25:32;;;;;;;13.77;7.72;;;;;;;;;;5011751;28;20753;-73
2023/02/06 04:27:58;;;;;;;12.82;6.68;;;;;;;;;;5008332;28;20122;-73
2023/02/06 04:30:24;;;;;;;11.60;6.68;;;;;;;;;;5012674;28;20129;-73
2023/02/06 04:32:50;;;;;;;11.40;6.55;;;;;;;;;;5013215;28;20594;-74
2023/02/06 04:35:16;;;;;;;12.38;6.63;;;;;;;;;;5016301;28;20121;-73
2023/02/06 04:37:42;;;;;;;12.43;6.90;;;;;;;;;;5014045;28;20033;-73
2023/02/06 04:40:09;;;;;;;13.25;6.68;;;;;;;;;;5015136;28;20029;-73
2023/02/06 04:42:35;;;;;;;13.38;7.82;;;;;;;;;;5015509;28;20037;-74
2023/02/06 04:45:01;;;;;;;13.52;7.18;;;;;;;;;;5017373;28;20030;-74
2023/02/06 04:47:27;;;;;;;13.60;7.57;;;;;;;;;;5019856;28;20044;-73
2023/02/06 04:49:54;;;;;;;13.07;7.80;;;;;;;;;;5017576;28;20530;-73
2023/02/06 04:52:20;;;;;;;13.93;8.23;;;;;;;;;;5011064;28;20032;-73
2023/02/06 04:54:46;;;;;;;17.50;8.30;;;;;;;;;;5014052;28;20034;-73
2023/02/06 04:57:12;;;;;;;19.85;10.35;;;;;;;;;;5016115;28;20519;-73
2023/02/06 04:59:38;;;;;;;15.48;8.68;;;;;;;;;;4996347;28;20073;-73
2023/02/06 05:02:04;;;;;;;17.25;10.63;;;;;;;;;;5019608;28;20156;-73
2023/02/06 05:04:30;;;;;;;18.27;9.25;;;;;;;;;;5023501;28;20044;-74
2023/02/06 05:06:56;;;;;;;18.85;9.77;;;;;;;;;;5019551;28;20021;-73
2023/02/06 05:09:22;;;;;;;18.20;9.80;;;;;;;;;;5017516;28;20038;-73
2023/02/06 05:11:48;;;;;;;17.80;9.88;;;;;;;;;;5013797;28;20029;-73
2023/02/06 05:14:14;;;;;;;19.02;9.95;;;;;;;;;;5018859;28;20038;-73
2023/02/06 05:16:40;;;;;;;14.85;8.00;;;;;;;;;;5014060;28;20151;-73
2023/02/06 05:19:06;;;;;;;13.50;7.20;;;;;;;;;;5015360;28;20160;-73
2023/02/06 05:21:32;;;;;;;16.58;7.63;;;;;;;;;;5019377;28;20530;-73
2023/02/06 05:23:58;;;;;;;13.93;7.47;;;;;;;;;;5013485;28;20034;-73
2023/02/06 05:26:24;;;;;;;15.43;8.25;;;;;;;;;;5016045;28;20032;-73
2023/02/06 05:28:50;;;;;;;20.75;11.27;;;;;;;;;;5014912;28;20495;-73
2023/02/06 05:31:19;;;;;;;18.45;9.00;;;;;;;;;;5018104;28;20144;-73
2023/02/06 05:33:50;;;;;;;18.58;10.35;;;;;;;;;;5018699;28;20068;-73
2023/02/06 05:36:17;;;;;;;23.90;11.83;;;;;;;;;;5007425;28;20037;-73
2023/02/06 05:38:43;;;;;;;20.75;11.52;;;;;;;;;;5015657;28;20045;-73
2023/02/06 05:41:09;;;;;;;24.40;13.05;;;;;;;;;;5019389;28;20034;-73
2023/02/06 05:43:35;;;;;;;22.08;11.25;;;;;;;;;;5015832;28;20026;-73
2023/02/06 05:46:01;;;;;;;19.00;11.05;;;;;;;;;;5015151;28;20113;-73
2023/02/06 05:48:29;;;;;;;22.70;11.48;;;;;;;;;;5003184;28;20038;-73
2023/02/06 05:50:56;;;;;;;27.33;14.23;;;;;;;;;;5012012;28;20037;-73
2023/02/06 05:53:22;;;;;;;26.27;14.02;;;;;;;;;;5015326;28;20036;-74
2023/02/06 05:55:48;;;;;;;26.92;15.02;;;;;;;;;;4998308;28;20681;-73
2023/02/06 05:58:14;;;;;;;24.52;13.48;;;;;;;;;;5016908;28;20030;-73
2023/02/06 06:00:40;;;;;;;24.58;13.57;;;;;;;;;;5016634;28;20110;-73
2023/02/06 06:03:06;;;;;;;25.42;13.35;;;;;;;;;;5012394;28;20125;-73
2023/02/06 06:05:32;;;;;;;22.05;11.73;;;;;;;;;;5013238;28;21786;-73
2023/02/06 06:07:58;;;;;;;19.70;11.05;;;;;;;;;;5010983;28;20531;-73
2023/02/06 06:10:24;;;;;;;22.02;11.82;;;;;;;;;;5016056;28;20515;-73
2023/02/06 06:12:50;;;;;;;19.83;11.18;;;;;;;;;;5013397;28;20633;-72
2023/02/06 06:15:16;;;;;;;25.30;13.73;;;;;;;;;;5016417;28;20042;-74
2023/02/06 06:17:42;;;;;;;38.10;16.73;;;;;;;;;;5016322;28;20042;-73
2023/02/06 06:20:08;;;;;;;45.90;19.38;;;;;;;;;;5014728;28;20033;-73
2023/02/06 06:22:34;;;;;;;36.30;19.33;;;;;;;;;;5018038;28;20026;-73
2023/02/06 06:25:01;;;;;;;29.27;13.75;;;;;;;;;;5001422;28;20052;-73
2023/02/06 06:27:27;;;;;;;33.30;14.35;;;;;;;;;;5013463;28;20447;-73
2023/02/06 06:29:53;;;;;;;26.00;12.02;;;;;;;;;;5017623;28;20042;-73
2023/02/06 06:32:19;;;;;;;22.85;11.35;;;;;;;;;;5013766;28;20034;-74
2023/02/06 06:34:45;;;;;;;41.00;17.73;;;;;;;;;;5016627;28;20042;-73
2023/02/06 06:37:11;;;;;;;46.88;19.33;;;;;;;;;;5014458;28;20525;-73
2023/02/06 06:39:37;;;;;;;44.90;16.50;;;;;;;;;;5019202;28;20040;-73
2023/02/06 06:42:03;;;;;;;38.58;16.85;;;;;;;;;;4999705;28;20048;-73
2023/02/06 06:44:29;;;;;;;33.40;11.85;;;;;;;;;;5013759;28;20076;-73
2023/02/06 06:46:55;;;;;;;23.40;11.00;;;;;;;;;;5011292;28;20033;-73
2023/02/06 06:49:21;;;;;;;21.27;8.85;;;;;;;;;;5010735;28;20537;-73
2023/02/06 06:51:47;;;;;;;22.70;9.88;;;;;;;;;;5012487;28;20026;-73
2023/02/06 06:54:14;;;;;;;25.88;11.23;;;;;;;;;;5004714;28;20049;-73
2023/02/06 06:56:40;;;;;;;35.10;16.85;;;;;;;;;;5010163;28;20539;-73
2023/02/06 06:59:06;;;;;;;25.08;12.20;;;;;;;;;;5020787;28;20042;-73
2023/02/06 07:01:32;;;;;;;27.40;12.73;;;;;;;;;;5016837;28;20029;-73
2023/02/06 07:03:59;;;;;;;23.42;12.02;;;;;;;;;;5017899;28;20080;-73
2023/02/06 07:06:25;;;;;;;24.73;11.38;;;;;;;;;;5013246;28;20060;-73
2023/02/06 07:08:51;;;;;;;20.05;10.55;;;;;;;;;;5016365;28;20041;-73
2023/02/06 07:11:17;;;;;;;23.13;11.05;;;;;;;;;;5015303;28;20032;-74
2023/02/06 07:13:44;;;;;;;22.55;11.48;;;;;;;;;;4993379;28;20073;-74
2023/02/06 07:16:10;;;;;;;24.17;10.55;;;;;;;;;;5015353;28;20117;-73
2023/02/06 07:18:41;;;;;;;20.77;9.93;;;;;;;;;;5012480;28;20060;-73
2023/02/06 07:21:08;;;;;;;22.77;11.75;;;;;;;;;;5015245;28;20090;-73
2023/02/06 07:23:37;;;;;;;25.52;12.63;;;;;;;;;;5015070;28;20093;-73
2023/02/06 07:26:04;;;;;;;28.40;13.32;;;;;;;;;;4996045;28;20033;-72
2023/02/06 07:28:31;;;;;;;26.98;12.90;;;;;;;;;;5012749;28;20127;-72
2023/02/06 07:31:00;;;;;;;22.17;12.32;;;;;;;;;;5000437;28;20648;-73
2023/02/06 07:33:27;;;;;;;32.28;16.73;;;;;;;;;;5009660;28;20046;-73
2023/02/06 07:35:53;;;;;;;26.75;14.82;;;;;;;;;;5003254;28;20033;-73
2023/02/06 07:38:19;;;;;;;28.23;16.88;;;;;;;;;;5008207;28;20038;-72
2023/02/06 07:40:45;;;;;;;27.25;15.60;;;;;;;;;;5008633;28;20083;-73
2023/02/06 07:43:11;;;;;;;28.35;15.30;;;;;;;;;;5007859;28;20029;-73
2023/02/06 07:45:37;;;;;;;25.33;13.60;;;;;;;;;;5010473;28;20030;-73
2023/02/06 07:48:03;;;;;;;26.33;14.40;;;;;;;;;;5012223;28;20033;-73
2023/02/06 07:50:29;;;;;;;25.67;13.15;;;;;;;;;;5011342;28;20028;-73
2023/02/06 07:52:55;;;;;;;24.55;12.52;;;;;;;;;;5008797;28;20026;-73
2023/02/06 07:55:24;;;;;;;20.00;11.80;;;;;;;;;;5013283;28;20165;-73
2023/02/06 07:57:50;;;;;;;20.83;11.82;;;;;;;;;;5014067;28;20044;-73
2023/02/06 08:00:16;;;;;;;22.85;12.00;;;;;;;;;;5019840;28;20415;-73
2023/02/06 08:02:42;;;;;;;22.27;13.50;;;;;;;;;;5009138;28;20042;-73
2023/02/06 08:05:09;;;;;;;27.80;16.83;;;;;;;;;;5012121;28;20026;-73
2023/02/06 08:07:35;;;;;;;41.38;22.20;;;;;;;;;;5012643;28;20124;-73
2023/02/06 08:10:01;;;;;;;36.33;21.95;;;;;;;;;;5011436;28;20064;-73
2023/02/06 08:12:29;;;;;;;55.45;29.30;;;;;;;;;;5011969;28;20041;-74
2023/02/06 08:14:55;;;;;;;46.58;27.30;;;;;;;;;;5013377;28;20038;-73
2023/02/06 08:17:21;;;;;;;39.10;24.63;;;;;;;;;;5010060;28;20056;-73
2023/02/06 08:19:48;;;;;;;48.58;27.13;;;;;;;;;;5011501;28;20034;-73
2023/02/06 08:22:14;;;;;;;36.60;22.48;;;;;;;;;;5010893;28;20029;-73
2023/02/06 08:24:40;;;;;;;52.95;29.45;;;;;;;;;;5012462;28;20475;-73
2023/02/06 08:27:06;;;;;;;76.63;41.40;;;;;;;;;;5013845;28;20040;-73
2023/02/06 08:29:39;;;;;;;73.75;37.33;;;;;;;;;;5013681;28;20092;-73
2023/02/06 08:32:05;;;;;;;39.67;24.25;;;;;;;;;;4997025;28;20045;-73
2023/02/06 08:34:31;;;;;;;37.35;22.98;;;;;;;;;;5012799;28;20851;-73
2023/02/06 08:36:57;;;;;;;30.67;19.67;;;;;;;;;;5008923;28;20038;-73
2023/02/06 08:39:23;;;;;;;31.77;20.65;;;;;;;;;;5013488;28;20151;-73
2023/02/06 08:41:49;;;;;;;35.55;21.42;;;;;;;;;;5012516;28;20383;-73
2023/02/06 08:44:16;;;;;;;44.83;28.48;;;;;;;;;;5015801;28;20061;-73
2023/02/06 08:46:43;;;;;;;41.30;26.85;;;;;;;;;;4995647;28;20029;-73
2023/02/06 08:49:16;;;;;;;40.88;24.40;;;;;;;;;;5016002;28;20034;-73
2023/02/06 08:51:42;;;;;;;29.88;19.20;;;;;;;;;;5012808;28;20042;-73
2023/02/06 08:54:11;;;;;;;31.63;20.27;;;;;;;;;;5013248;28;20590;-73
2023/02/06 08:56:37;;;;;;;26.63;16.55;;;;;;;;;;5015194;28;20711;-73
2023/02/06 08:59:04;;;;;;;21.83;14.75;;;;;;;;;;5012490;28;20144;-74
2023/02/06 09:01:31;;;;;;;23.38;15.15;;;;;;;;;;5012881;28;20498;-73
2023/02/06 09:03:58;;;;;;;25.92;13.88;;;;;;;;;;5016715;28;20161;-73
2023/02/06 09:06:24;;;;;;;22.00;12.88;;;;;;;;;;5009802;28;20785;-74
2023/02/06 09:08:50;;;;;;;29.17;16.15;;;;;;;;;;5013246;28;20107;-73
2023/02/06 09:11:17;;;;;;;27.60;16.20;;;;;;;;;;5011600;28;20100;-73
2023/02/06 09:13:46;;;;;;;23.80;11.55;;;;;;;;;;5015614;28;20160;-73
2023/02/06 09:16:12;;;;;;;16.27;9.02;;;;;;;;;;4998660;28;20029;-73
2023/02/06 09:18:38;;;;;;;18.02;9.05;;;;;;;;;;5013411;28;20049;-74
2023/02/06 09:21:10;;;;;;;15.05;7.97;;;;;;;;;;5012589;28;20061;-73
2023/02/06 09:23:36;;;;;;;11.93;6.55;;;;;;;;;;5017180;28;20038;-73
2023/02/06 09:26:02;;;;;;;13.80;6.50;;;;;;;;;;5013962;28;20108;-73
2023/02/06 09:28:28;;;;;;;19.45;10.98;;;;;;;;;;5015110;28;20069;-73
2023/02/06 09:30:54;;;;;;;26.27;16.50;;;;;;;;;;5012989;28;20037;-74
2023/02/06 09:33:20;;;;;;;24.42;15.05;;;;;;;;;;5014702;28;20418;-73
2023/02/06 09:35:46;;;;;;;15.75;7.90;;;;;;;;;;5016480;28;20055;-73
2023/02/06 09:38:12;;;;;;;16.00;10.00;;;;;;;;;;5015666;28;20115;-73
2023/02/06 09:40:38;;;;;;;14.50;7.13;;;;;;;;;;5001098;28;20026;-73
2023/02/06 09:43:04;;;;;;;25.50;12.75;;;;;;;;;;5013005;28;20044;-73
2023/02/06 09:45:31;;;;;;;11.68;4.90;;;;;;;;;;5021330;28;20026;-73
2023/02/06 09:48:10;;;;;;;12.02;5.97;;;;;;;;;;5013227;28;20096;-73
2023/02/06 09:50:41;;;;;;;10.75;5.85;;;;;;;;;;5015351;28;20675;-73
2023/02/06 09:53:07;;;;;;;16.20;7.38;;;;;;;;;;5012752;28;20034;-73
2023/02/06 09:55:36;;;;;;;15.77;6.57;;;;;;;;;;5021540;28;20036;-73
2023/02/06 09:58:02;;;;;;;15.55;7.90;;;;;;;;;;5013667;28;20113;-73
2023/02/06 10:00:34;;;;;;;17.60;8.75;;;;;;;;;;5020688;28;20120;-74
2023/02/06 10:03:06;;;;;;;14.18;7.45;;;;;;;;;;5014818;28;20491;-73
2023/02/06 10:05:54;;;;;;;11.90;6.47;;;;;;;;;;5012892;28;20037;-73
2023/02/06 10:08:25;;;;;;;28.42;16.67;;;;;;;;;;5017021;28;20042;-73
2023/02/06 10:11:02;;;;;;;22.00;11.45;;;;;;;;;;5018556;28;20030;-73
2023/02/06 10:13:28;;;;;;;22.27;9.48;;;;;;;;;;5013526;28;20038;-73
2023/02/06 10:15:57;;;;;;;23.80;9.50;;;;;;;;;;5017684;28;20038;-73
2023/02/06 10:18:32;;;;;;;21.40;7.60;;;;;;;;;;5014223;28;20041;-73
2023/02/06 10:21:01;;;;;;;20.20;10.18;;;;;;;;;;5009368;28;20022;-74
2023/02/06 10:23:34;;;;;;;25.15;11.43;;;;;;;;;;5013859;28;20472;-73
2023/02/06 10:26:05;;;;;;;18.17;6.30;;;;;;;;;;5010902;28;20809;-72
2023/02/06 10:28:34;;;;;;;12.25;4.90;;;;;;;;;;5015090;28;20434;-72
2023/02/06 10:31:23;;;;;;;10.98;4.72;;;;;;;;;;5016157;28;20075;-73
2023/02/06 10:33:55;;;;;;;10.30;4.63;;;;;;;;;;5001506;28;20038;-73
2023/02/06 10:36:39;;;;;;;9.68;4.13;;;;;;;;;;5013920;28;20033;-72
2023/02/06 10:39:06;;;;;;;6.78;2.78;;;;;;;;;;5012120;28;20042;-72
2023/02/06 10:41:51;;;;;;;5.80;2.47;;;;;;;;;;5014462;28;20029;-73
2023/02/06 10:44:35;;;;;;;8.07;3.90;;;;;;;;;;5011475;28;20099;-73
2023/02/06 10:47:01;;;;;;;8.35;4.18;;;;;;;;;;5015334;28;20026;-72
2023/02/06 10:49:36;;;;;;;8.75;4.78;;;;;;;;;;5016008;28;20487;-73
2023/02/06 10:52:03;;;;;;;8.38;3.72;;;;;;;;;;5014472;28;20058;-72
2023/02/06 10:54:35;;;;;;;8.88;4.35;;;;;;;;;;5013540;28;20125;-72
2023/02/06 10:57:01;;;;;;;7.18;4.90;;;;;;;;;;5012906;28;20067;-73
2023/02/06 10:59:42;;;;;;;8.70;5.53;;;;;;;;;;5021540;28;20784;-73
2023/02/06 11:02:26;;;;;;;11.45;4.82;;;;;;;;;;5016726;28;20352;-72
2023/02/06 11:04:55;;;;;;;9.02;5.78;;;;;;;;;;5014946;28;20029;-73
2023/02/06 11:07:24;;;;;;;10.02;5.50;;;;;;;;;;5019103;28;20038;-73
2023/02/06 11:09:51;;;;;;;9.38;5.75;;;;;;;;;;5016424;28;20081;-73
2023/02/06 11:12:22;;;;;;;9.57;6.00;;;;;;;;;;5011561;28;20509;-73
2023/02/06 11:14:49;;;;;;;9.40;4.70;;;;;;;;;;5015819;28;20507;-73
2023/02/06 11:17:16;;;;;;;14.10;5.88;;;;;;;;;;5012917;28;20125;-73
2023/02/06 11:19:45;;;;;;;12.73;5.20;;;;;;;;;;5010632;28;20095;-73
2023/02/06 11:22:13;;;;;;;10.00;5.50;;;;;;;;;;5014673;28;20072;-73
2023/02/06 11:24:57;;;;;;;11.35;5.45;;;;;;;;;;5011606;28;20022;-73
2023/02/06 11:27:23;;;;;;;13.30;5.18;;;;;;;;;;5016060;28;20033;-73
2023/02/06 11:29:49;;;;;;;8.40;4.40;;;;;;;;;;5011835;28;20372;-73
2023/02/06 11:32:35;;;;;;;11.20;5.10;;;;;;;;;;5014670;28;20074;-73
2023/02/06 11:35:03;;;;;;;12.02;5.07;;;;;;;;;;5014451;28;20094;-72
2023/02/06 11:37:29;;;;;;;9.40;5.60;;;;;;;;;;5015903;28;20032;-72
2023/02/06 11:40:13;;;;;;;9.52;5.00;;;;;;;;;;5007967;28;20026;-73
2023/02/06 11:42:39;;;;;;;8.23;5.18;;;;;;;;;;5015781;28;20038;-73
2023/02/06 11:45:39;;;;;;;6.80;3.88;;;;;;;;;;5012403;28;20040;-73
2023/02/06 11:48:06;;;;;;;8.43;4.50;;;;;;;;;;4971906;28;20447;-73
2023/02/06 11:50:34;;;;;;;7.38;4.30;;;;;;;;;;5011105;28;20030;-73
2023/02/06 11:53:14;;;;;;;7.88;4.15;;;;;;;;;;5015693;28;20562;-73
2023/02/06 11:55:41;;;;;;;6.70;3.95;;;;;;;;;;5008545;28;21729;-73
2023/02/06 11:58:14;;;;;;;6.95;4.45;;;;;;;;;;5015779;28;20026;-73
2023/02/06 12:00:53;;;;;;;6.82;4.15;;;;;;;;;;5014648;28;20033;-73
2023/02/06 12:03:25;;;;;;;7.00;3.70;;;;;;;;;;5010686;28;20041;-73
2023/02/06 12:05:51;;;;;;;7.18;3.58;;;;;;;;;;5013514;28;20034;-73
2023/02/06 12:08:18;;;;;;;6.03;3.55;;;;;;;;;;5012315;28;20080;-73
2023/02/06 12:10:51;;;;;;;8.77;3.95;;;;;;;;;;5013361;28;20132;-73
2023/02/06 12:13:22;;;;;;;6.07;3.13;;;;;;;;;;5012456;28;20116;-73
2023/02/06 12:15:51;;;;;;;7.40;2.80;;;;;;;;;;5015627;28;20078;-73
2023/02/06 12:18:17;;;;;;;6.22;3.72;;;;;;;;;;5013828;28;20052;-73
2023/02/06 12:20:48;;;;;;;10.25;4.80;;;;;;;;;;5014081;28;20624;-73
2023/02/06 12:23:18;;;;;;;6.45;4.35;;;;;;;;;;5009176;28;20067;-73
2023/02/06 12:25:48;;;;;;;7.95;3.90;;;;;;;;;;5015601;28;20022;-73
2023/02/06 12:28:20;;;;;;;6.82;4.53;;;;;;;;;;5010177;28;20035;-73
2023/02/06 12:30:46;;;;;;;;;;;;;;;;;;5015896;28;20042;-73
2023/02/06 12:33:18;;;;;;;7.05;4.20;;;;;;;;;;5012907;28;19920;-73
2023/02/06 12:35:48;;;;;;;7.53;4.77;;;;;;;;;;5016136;28;20129;-73
2023/02/06 12:38:17;;;;;;;7.95;4.70;;;;;;;;;;5011695;28;20066;-73
2023/02/06 12:40:48;;;;;;;9.27;4.68;;;;;;;;;;5011702;28;20065;-73
2023/02/06 12:43:15;;;;;;;14.07;5.45;;;;;;;;;;5010539;28;20037;-72
2023/02/06 12:45:45;;;;;;;8.18;4.97;;;;;;;;;;5013554;28;20475;-72
2023/02/06 12:48:19;;;;;;;10.02;5.90;;;;;;;;;;5012716;28;20164;-72
2023/02/06 12:51:04;;;;;;;8.65;5.38;;;;;;;;;;5010623;28;20042;-73
2023/02/06 12:53:30;;;;;;;11.82;5.38;;;;;;;;;;5008731;28;20041;-73
2023/02/06 12:56:02;;;;;;;15.95;6.63;;;;;;;;;;5014972;28;20041;-73
2023/02/06 12:58:28;;;;;;;;;;;;;;;;;;5011110;28;20065;-72
2023/02/06 13:01:01;;;;;;;11.40;6.45;;;;;;;;;;5015572;28;20449;-73
2023/02/06 13:03:32;;;;;;;9.68;6.13;;;;;;;;;;5015514;28;20101;-73
2023/02/06 13:06:04;;;;;;;8.57;5.55;;;;;;;;;;5013507;28;20485;-73
2023/02/06 13:08:38;;;;;;;12.55;5.95;;;;;;;;;;5017270;28;20080;-73
2023/02/06 13:11:08;;;;;;;14.10;6.35;;;;;;;;;;5016755;28;20091;-73
2023/02/06 13:13:36;;;;;;;11.73;6.25;;;;;;;;;;5023013;28;20033;-73
2023/02/06 13:16:03;;;;;;;9.20;5.90;;;;;;;;;;5015062;28;20045;-73
2023/02/06 13:18:49;;;;;;;10.23;6.13;;;;;;;;;;5017268;28;20383;-73
2023/02/06 13:21:18;;;;;;;8.85;5.60;;;;;;;;;;5012030;28;20033;-73
2023/02/06 13:23:50;;;;;;;10.30;7.18;;;;;;;;;;5019892;28;20032;-73
2023/02/06 13:26:16;;;;;;;10.85;5.95;;;;;;;;;;5013746;28;20042;-73
2023/02/06 13:28:44;;;;;;;10.73;6.43;;;;;;;;;;5012201;28;20372;-73
2023/02/06 13:31:21;;;;;;;11.20;6.40;;;;;;;;;;5015651;28;20069;-72
2023/02/06 13:33:50;;;;;;;11.55;5.32;;;;;;;;;;5019411;28;20730;-73
2023/02/06 13:36:18;;;;;;;11.60;6.38;;;;;;;;;;5015649;28;20104;-74
2023/02/06 13:38:44;;;;;;;9.68;6.18;;;;;;;;;;5020659;28;20141;-75
2023/02/06 13:41:13;;;;;;;11.13;6.75;;;;;;;;;;5022792;28;20034;-75
2023/02/06 13:43:40;;;;;;;9.30;6.18;;;;;;;;;;5027133;28;20021;-75
2023/02/06 13:46:12;;;;;;;11.07;6.90;;;;;;;;;;5024532;28;20417;-76
2023/02/06 13:49:04;;;;;;;8.65;6.22;;;;;;;;;;5014582;28;20637;-75
2023/02/06 13:51:33;;;;;;;10.15;6.53;;;;;;;;;;4991042;28;20049;-74
2023/02/06 13:54:06;;;;;;;11.88;6.18;;;;;;;;;;5017400;28;20034;-75
2023/02/06 13:56:51;;;;;;;11.10;6.78;;;;;;;;;;5028017;28;20044;-74
2023/02/06 13:59:24;;;;;;;11.80;6.93;;;;;;;;;;5018769;28;20062;-75
2023/02/06 14:01:50;;;;;;;;;;;;;;;;;;5024016;28;20398;-74
2023/02/06 14:04:21;;;;;;;10.38;7.05;;;;;;;;;;5020048;28;19967;-74
2023/02/06 14:07:03;;;;;;;12.63;7.45;;;;;;;;;;5024839;28;20040;-74
2023/02/06 14:12:38;;;;;;;10.27;7.15;;;;;;;;;;5020101;28;20537;-75
2023/02/06 14:15:19;;;;;;;10.90;6.78;;;;;;;;;;5023078;28;20053;-74
2023/02/06 14:17:54;;;;;;;12.00;7.18;;;;;;;;;;5019001;28;20069;-75
2023/02/06 14:20:39;;;;;;;12.27;7.28;;;;;;;;;;5024088;28;20041;-75
2023/02/06 14:23:05;;;;;;;12.60;8.00;;;;;;;;;;5016692;28;20805;-74
2023/02/06 14:25:34;;;;;;;10.65;7.30;;;;;;;;;;5025687;28;20044;-74
2023/02/06 14:28:15;;;;;;;10.05;7.18;;;;;;;;;;5012584;28;20033;-74
2023/02/06 14:31:00;;;;;;;10.30;7.07;;;;;;;;;;5018771;28;20053;-74
2023/02/06 14:33:26;;;;;;;11.65;6.90;;;;;;;;;;5020063;28;20038;-75
2023/02/06 14:35:58;;;;;;;12.00;7.45;;;;;;;;;;5025509;28;20128;-74
2023/02/06 14:38:34;;;;;;;12.68;7.05;;;;;;;;;;5018433;28;20048;-74
2023/02/06 14:41:01;;;;;;;12.43;7.38;;;;;;;;;;5020684;28;20475;-74